createdAt,value
2022-08-24T00:01:47.635Z,44.68
2022-08-24T00:04:16.241Z,45.86
2022-08-24T00:06:44.643Z,45.72
2022-08-24T00:09:11.526Z,46.09
2022-08-24T00:11:38.577Z,46.55
2022-08-24T00:14:05.539Z,47.26
2022-08-24T00:16:32.493Z,47.17
2022-08-24T00:19:00.606Z,47.58
2022-08-24T00:21:27.659Z,47.42
2022-08-24T00:23:54.640Z,47.76
2022-08-24T00:26:29.030Z,47.57
2022-08-24T00:28:58.205Z,47.03
2022-08-24T00:31:26.315Z,47.05
2022-08-24T00:33:54.398Z,46.71
2022-08-24T00:36:21.940Z,46.37
2022-08-24T00:38:49.643Z,47.13
2022-08-24T00:41:18.007Z,47.54
2022-08-24T00:43:58.390Z,47.96
2022-08-24T00:47:00.051Z,48.05
2022-08-24T00:49:44.598Z,47.99
2022-08-24T00:52:45.200Z,47.79
2022-08-24T00:55:20.793Z,48.04
2022-08-24T00:57:51.562Z,48.01
2022-08-24T01:00:25.444Z,48.21
2022-08-24T01:02:59.412Z,48.47
2022-08-24T01:05:26.383Z,48.62
2022-08-24T01:07:53.521Z,48.39
2022-08-24T01:10:27.794Z,48.35
2022-08-24T01:13:05.728Z,48.68
2022-08-24T01:15:45.860Z,48.56
2022-08-24T01:18:48.699Z,48.97
2022-08-24T01:21:36.736Z,48.70
2022-08-24T01:24:11.094Z,48.96
2022-08-24T01:26:44.448Z,49.08
2022-08-24T01:29:20.949Z,48.96
2022-08-24T01:31:51.310Z,49.03
2022-08-24T01:34:18.479Z,49.22
2022-08-24T01:36:54.231Z,49.37
2022-08-24T01:39:40.228Z,49.25
2022-08-24T01:42:07.779Z,49.22
2022-08-24T01:44:37.781Z,49.25
2022-08-24T01:47:08.791Z,49.79
2022-08-24T01:49:41.510Z,50.08
2022-08-24T01:52:12.725Z,49.48
2022-08-24T01:54:43.345Z,49.65
2022-08-24T01:57:16.318Z,49.41
2022-08-24T01:59:44.467Z,49.13
2022-08-24T02:02:24.026Z,49.44
2022-08-24T02:04:50.961Z,49.33
2022-08-24T02:07:19.217Z,48.71
2022-08-24T02:09:47.068Z,49.46
2022-08-24T02:12:14.562Z,49.46
2022-08-24T02:14:42.063Z,50.49
2022-08-24T02:17:09.702Z,51.24
2022-08-24T02:19:37.626Z,52.12
2022-08-24T02:22:06.055Z,51.75
2022-08-24T02:24:33.302Z,50.67
2022-08-24T02:27:00.489Z,50.33
2022-08-24T02:29:27.412Z,50.75
2022-08-24T02:31:54.451Z,51.65
2022-08-24T02:34:21.570Z,52.78
2022-08-24T02:36:51.507Z,51.73
2022-08-24T02:39:18.474Z,51.75
2022-08-24T02:41:45.640Z,51.68
2022-08-24T02:44:12.605Z,52.00
2022-08-24T02:46:39.942Z,52.75
2022-08-24T02:49:11.374Z,53.09
2022-08-24T02:51:44.530Z,52.53
2022-08-24T02:54:17.741Z,52.65
2022-08-24T02:56:46.169Z,52.32
2022-08-24T02:59:13.900Z,52.77
2022-08-24T03:01:41.155Z,52.58
2022-08-24T03:04:08.375Z,52.91
2022-08-24T03:06:35.251Z,52.90
2022-08-24T03:09:03.494Z,53.02
2022-08-24T03:11:30.451Z,52.96
2022-08-24T03:13:59.151Z,53.27
2022-08-24T03:16:28.303Z,53.11
2022-08-24T03:18:55.359Z,53.38
2022-08-24T03:21:22.305Z,53.42
2022-08-24T03:23:49.277Z,53.54
2022-08-24T03:26:16.240Z,53.82
2022-08-24T03:28:44.650Z,54.34
2022-08-24T03:31:12.786Z,54.17
2022-08-24T03:33:39.785Z,54.50
2022-08-24T03:36:12.342Z,54.79
2022-08-24T03:38:41.469Z,55.15
2022-08-24T03:41:08.943Z,54.65
2022-08-24T03:43:47.092Z,54.08
2022-08-24T03:46:21.399Z,53.13
2022-08-24T03:48:49.242Z,52.78
2022-08-24T03:51:21.281Z,51.68
2022-08-24T03:53:48.268Z,51.46
2022-08-24T03:56:16.414Z,51.59
2022-08-24T03:58:43.527Z,51.24
2022-08-24T04:01:11.622Z,51.51
2022-08-24T04:03:43.320Z,51.62
2022-08-24T04:06:12.206Z,51.30
2022-08-24T04:08:41.439Z,51.68
2022-08-24T04:11:15.300Z,51.83
2022-08-24T04:13:42.298Z,51.71
2022-08-24T04:16:14.668Z,52.08
2022-08-24T04:18:42.101Z,51.79
2022-08-24T04:21:25.499Z,52.06
2022-08-24T04:23:53.839Z,51.90
2022-08-24T04:26:44.193Z,51.48
2022-08-24T04:29:13.526Z,50.95
2022-08-24T04:31:42.918Z,51.47
2022-08-24T04:34:11.585Z,51.42
2022-08-24T04:36:42.199Z,50.79
2022-08-24T04:39:09.222Z,50.52
2022-08-24T04:41:36.876Z,49.80
2022-08-24T04:44:04.761Z,49.54
2022-08-24T04:46:31.707Z,50.19
2022-08-24T04:48:58.614Z,49.38
2022-08-24T04:51:25.579Z,49.14
2022-08-24T04:53:52.504Z,48.82
2022-08-24T04:56:25.616Z,48.72
2022-08-24T04:58:54.229Z,48.62
2022-08-24T05:01:24.896Z,48.05
2022-08-24T05:03:54.621Z,47.20
2022-08-24T05:06:30.479Z,46.70
2022-08-24T05:08:58.590Z,46.05
2022-08-24T05:11:26.833Z,45.33
2022-08-24T05:13:56.232Z,45.23
2022-08-24T05:16:25.281Z,44.30
2022-08-24T05:18:52.380Z,43.94
2022-08-24T05:21:21.770Z,43.38
2022-08-24T05:23:49.156Z,43.02
2022-08-24T05:26:21.444Z,42.39
2022-08-24T05:28:48.423Z,41.72
2022-08-24T05:31:19.909Z,40.59
2022-08-24T05:33:48.189Z,40.11
2022-08-24T05:36:29.003Z,40.82
2022-08-24T05:38:58.763Z,40.14
2022-08-24T05:41:26.105Z,39.61
2022-08-24T05:43:53.676Z,38.59
2022-08-24T05:46:21.084Z,38.01
2022-08-24T05:48:52.711Z,37.36
2022-08-24T05:51:21.327Z,36.50
2022-08-24T05:53:48.485Z,36.17
2022-08-24T05:56:18.108Z,35.46
2022-08-24T05:58:46.235Z,35.01
2022-08-24T06:01:16.110Z,35.38
2022-08-24T06:03:44.144Z,35.06
2022-08-24T06:06:13.464Z,35.71
2022-08-24T06:08:49.969Z,35.41
2022-08-24T06:11:37.214Z,34.69
2022-08-24T06:14:12.033Z,33.48
2022-08-24T06:16:44.143Z,32.80
2022-08-24T06:19:15.404Z,31.77
2022-08-24T06:21:44.178Z,31.30
2022-08-24T06:24:11.050Z,31.44
2022-08-24T06:26:56.200Z,31.29
2022-08-24T06:29:23.134Z,30.02
2022-08-24T06:31:54.609Z,30.39
2022-08-24T06:34:26.063Z,29.58
2022-08-24T06:36:53.116Z,28.33
2022-08-24T06:39:20.868Z,26.99
2022-08-24T06:41:47.733Z,26.23
2022-08-24T06:44:14.654Z,25.14
2022-08-24T06:46:41.623Z,23.95
2022-08-24T06:49:08.659Z,23.47
2022-08-24T06:51:35.738Z,21.99
2022-08-24T06:54:02.684Z,21.74
2022-08-24T06:56:29.633Z,21.95
2022-08-24T06:58:56.733Z,23.03
2022-08-24T07:01:26.587Z,22.15
2022-08-24T07:03:53.685Z,22.36
2022-08-24T07:06:22.015Z,22.70
2022-08-24T07:08:49.255Z,21.91
2022-08-24T07:11:18.509Z,21.50
2022-08-24T07:13:47.624Z,21.30
2022-08-24T07:16:19.478Z,21.62
2022-08-24T07:18:49.836Z,21.88
2022-08-24T07:21:19.685Z,23.24
2022-08-24T07:23:49.213Z,24.01
2022-08-24T07:26:22.635Z,24.75
2022-08-24T07:28:56.276Z,24.00
2022-08-24T07:31:23.207Z,23.39
2022-08-24T07:33:50.212Z,23.74
2022-08-24T07:36:22.513Z,22.97
2022-08-24T07:38:54.392Z,22.64
2022-08-24T07:41:51.370Z,21.64
2022-08-24T07:44:12.498Z,21.11
2022-08-24T07:46:41.151Z,20.04
2022-08-24T07:49:20.293Z,19.80
2022-08-24T07:51:55.739Z,19.89
2022-08-24T07:54:22.762Z,19.13
2022-08-24T07:56:50.278Z,18.48
2022-08-24T07:59:18.095Z,17.49
2022-08-24T08:01:45.041Z,18.08
2022-08-24T08:04:14.077Z,16.91
2022-08-24T08:06:42.195Z,16.68
2022-08-24T08:09:09.213Z,16.36
2022-08-24T08:11:36.142Z,16.06
2022-08-24T08:14:03.102Z,15.77
2022-08-24T08:16:30.194Z,15.38
2022-08-24T08:19:12.490Z,15.52
2022-08-24T08:22:10.179Z,15.74
2022-08-24T08:24:43.720Z,14.75
2022-08-24T08:27:17.444Z,15.98
2022-08-24T08:29:44.834Z,15.99
2022-08-24T08:32:17.266Z,15.33
2022-08-24T08:34:45.643Z,15.07
2022-08-24T08:37:14.100Z,14.28
2022-08-24T08:39:41.693Z,13.76
2022-08-24T08:42:28.496Z,13.06
2022-08-24T08:45:10.076Z,13.20
2022-08-24T08:48:26.305Z,13.13
2022-08-24T08:51:33.675Z,13.03
2022-08-24T08:54:26.812Z,13.03
2022-08-24T08:57:24.329Z,12.40
2022-08-24T09:00:19.534Z,12.92
2022-08-24T09:03:32.649Z,13.36
2022-08-24T09:06:36.933Z,12.39
2022-08-24T09:09:37.526Z,11.92
2022-08-24T09:12:44.616Z,11.71
2022-08-24T09:15:45.420Z,11.38
2022-08-24T09:18:42.915Z,11.50
2022-08-24T09:21:34.007Z,10.46
2022-08-24T09:24:30.093Z,10.11
2022-08-24T09:27:40.117Z,9.81
2022-08-24T09:30:23.761Z,10.32
2022-08-24T09:33:21.021Z,9.84
2022-08-24T09:36:14.770Z,10.06
2022-08-24T09:39:10.714Z,10.08
2022-08-24T09:42:22.542Z,9.80
2022-08-24T09:45:25.504Z,9.74
2022-08-24T09:48:16.941Z,9.05
2022-08-24T09:51:21.090Z,8.97
2022-08-24T09:54:44.006Z,8.82
2022-08-24T09:57:59.361Z,8.60
2022-08-24T10:00:41.902Z,8.66
2022-08-24T10:03:46.114Z,8.28
2022-08-24T10:06:38.699Z,8.83
2022-08-24T10:09:40.938Z,9.55
2022-08-24T10:12:25.491Z,9.71
2022-08-24T10:15:17.927Z,9.94
2022-08-24T10:18:08.882Z,9.80
2022-08-24T10:21:17.867Z,9.83
2022-08-24T10:24:07.474Z,10.16
2022-08-24T10:27:04.717Z,11.36
2022-08-24T10:29:58.700Z,11.94
2022-08-24T10:32:56.965Z,13.67
2022-08-24T10:35:33.710Z,15.19
2022-08-24T10:38:49.859Z,16.29
2022-08-24T10:41:47.614Z,18.11
2022-08-24T10:44:49.073Z,19.17
2022-08-24T10:47:30.792Z,20.29
2022-08-24T10:50:21.077Z,21.55
2022-08-24T10:52:58.071Z,21.67
2022-08-24T10:55:30.330Z,21.61
2022-08-24T10:58:28.692Z,22.24
2022-08-24T11:00:56.631Z,22.65
2022-08-24T11:03:28.580Z,24.03
2022-08-24T11:05:57.320Z,24.54
2022-08-24T11:08:28.484Z,24.39
2022-08-24T11:11:13.130Z,24.06
2022-08-24T11:14:00.413Z,25.07
2022-08-24T11:16:47.981Z,25.44
2022-08-24T11:19:32.633Z,25.41
2022-08-24T11:22:06.641Z,25.01
2022-08-24T11:24:48.621Z,25.69
2022-08-24T11:27:34.269Z,25.87
2022-08-24T11:30:25.261Z,26.56
2022-08-24T11:33:00.536Z,26.70
2022-08-24T11:35:36.282Z,26.45
2022-08-24T11:38:16.359Z,26.82
2022-08-24T11:41:01.799Z,27.24
2022-08-24T11:44:04.529Z,27.16
2022-08-24T11:46:50.969Z,27.75
2022-08-24T11:49:24.670Z,28.85
2022-08-24T11:52:00.450Z,27.74
2022-08-24T11:55:02.195Z,27.77
2022-08-24T11:57:50.058Z,28.29
2022-08-24T12:00:21.955Z,27.65
2022-08-24T12:03:39.127Z,28.22
2022-08-24T12:06:32.474Z,28.24
2022-08-24T12:09:39.670Z,28.35
2022-08-24T12:12:57.243Z,27.72
2022-08-24T12:16:18.185Z,27.86
2022-08-24T12:18:54.357Z,28.07
2022-08-24T12:21:26.521Z,26.93
2022-08-24T12:24:05.548Z,26.62
2022-08-24T12:27:00.564Z,27.15
2022-08-24T12:30:05.499Z,25.82
2022-08-24T12:32:46.265Z,27.32
2022-08-24T12:35:35.495Z,27.30
2022-08-24T12:38:23.212Z,27.84
2022-08-24T12:43:51.412Z,25.86
2022-08-24T12:46:25.996Z,26.25
2022-08-24T12:49:01.330Z,26.36
2022-08-24T12:52:09.569Z,26.94
2022-08-24T12:55:40.984Z,26.60
2022-08-24T12:58:34.598Z,26.72
2022-08-24T13:01:06.834Z,26.65
2022-08-24T13:03:38.946Z,26.22
2022-08-24T13:06:20.112Z,26.26
2022-08-24T13:08:51.213Z,25.93
2022-08-24T13:11:24.335Z,26.06
2022-08-24T13:13:57.355Z,25.79
2022-08-24T13:16:55.199Z,26.12
2022-08-24T13:19:37.464Z,25.59
2022-08-24T13:22:10.268Z,26.31
2022-08-24T13:24:40.142Z,26.06
2022-08-24T13:27:12.809Z,25.64
2022-08-24T13:30:08.603Z,25.88
2022-08-24T13:32:39.102Z,25.77
2022-08-24T13:35:39.910Z,25.87
2022-08-24T13:38:34.556Z,26.25
2022-08-24T13:41:22.585Z,26.09
2022-08-24T13:44:00.453Z,25.66
2022-08-24T13:47:00.649Z,26.05
2022-08-24T13:49:53.115Z,25.91
2022-08-24T13:52:37.978Z,25.75
2022-08-24T13:55:31.830Z,25.40
2022-08-24T13:58:36.410Z,25.46
2022-08-24T14:01:25.421Z,25.89
2022-08-24T14:04:10.727Z,26.19
2022-08-24T14:07:08.550Z,26.23
2022-08-24T14:10:08.973Z,26.77
2022-08-24T14:13:14.556Z,27.35
2022-08-24T14:16:59.838Z,26.83
2022-08-24T14:20:14.283Z,26.74
2022-08-24T14:23:20.971Z,27.22
2022-08-24T14:25:49.222Z,26.20
2022-08-24T14:28:40.635Z,26.59
2022-08-24T14:31:27.906Z,26.43
2022-08-24T14:34:08.054Z,26.57
2022-08-24T14:36:54.998Z,26.93
2022-08-24T14:39:35.812Z,26.22
2022-08-24T14:42:24.670Z,26.12
2022-08-24T14:45:12.694Z,26.70
2022-08-24T14:48:24.458Z,26.71
2022-08-24T14:51:03.148Z,27.23
2022-08-24T14:54:12.068Z,26.81
2022-08-24T14:57:18.718Z,26.73
2022-08-24T15:00:02.984Z,26.57
2022-08-24T15:02:29.741Z,26.50
2022-08-24T15:05:22.133Z,26.23
2022-08-24T15:08:28.563Z,25.74
2022-08-24T15:11:18.656Z,25.88
2022-08-24T15:14:04.473Z,25.94
2022-08-24T15:17:02.226Z,26.37
2022-08-24T15:19:29.046Z,26.32
2022-08-24T15:22:08.943Z,26.79
2022-08-24T15:24:35.740Z,27.10
2022-08-24T15:27:27.566Z,26.96
2022-08-24T15:30:02.479Z,26.92
2022-08-24T15:32:48.835Z,26.53
2022-08-24T15:35:47.911Z,26.36
2022-08-24T15:38:30.352Z,26.40
2022-08-24T15:41:17.991Z,26.52
2022-08-24T15:43:56.825Z,26.62
2022-08-24T15:46:31.922Z,26.52
2022-08-24T15:49:07.040Z,26.27
2022-08-24T15:51:43.557Z,26.40
2022-08-24T15:54:30.993Z,26.50
2022-08-24T15:57:28.206Z,26.30
2022-08-24T16:00:13.599Z,26.69
2022-08-24T16:02:41.864Z,26.51
2022-08-24T16:05:25.091Z,26.50
2022-08-24T16:08:18.051Z,25.82
2022-08-24T16:10:48.922Z,25.68
2022-08-24T16:13:18.729Z,26.56
2022-08-24T16:16:02.688Z,26.10
2022-08-24T16:18:49.439Z,26.62
2022-08-24T16:21:29.646Z,26.59
2022-08-24T16:24:21.535Z,26.63
2022-08-24T16:26:48.780Z,26.67
2022-08-24T16:29:37.241Z,25.65
2022-08-24T16:32:53.789Z,25.85
2022-08-24T16:35:24.194Z,25.54
2022-08-24T16:37:52.748Z,25.56
2022-08-24T16:40:20.088Z,25.91
2022-08-24T16:42:47.300Z,26.21
2022-08-24T16:45:19.198Z,25.43
2022-08-24T16:47:47.383Z,25.48
2022-08-24T16:50:17.349Z,25.12
2022-08-24T16:52:45.071Z,25.59
2022-08-24T16:55:14.435Z,25.43
2022-08-24T16:57:42.306Z,25.27
2022-08-24T17:00:15.505Z,25.62
2022-08-24T17:02:43.568Z,26.11
2022-08-24T17:05:11.347Z,25.27
2022-08-24T17:07:38.203Z,25.55
2022-08-24T17:10:09.135Z,25.41
2022-08-24T17:12:37.077Z,25.45
2022-08-24T17:15:06.682Z,25.64
2022-08-24T17:17:34.365Z,26.01
2022-08-24T17:20:01.951Z,26.19
2022-08-24T17:22:29.103Z,26.39
2022-08-24T17:24:56.022Z,26.31
2022-08-24T17:27:30.899Z,26.23
2022-08-24T17:29:59.885Z,26.50
2022-08-24T17:32:27.033Z,26.29
2022-08-24T17:34:54.044Z,26.65
2022-08-24T17:37:20.913Z,26.80
2022-08-24T17:39:55.192Z,27.03
2022-08-24T17:42:49.096Z,27.46
2022-08-24T17:45:10.332Z,26.83
2022-08-24T17:47:37.275Z,27.94
2022-08-24T17:50:06.456Z,26.63
2022-08-24T17:52:33.433Z,26.51
2022-08-24T17:55:00.264Z,26.60
2022-08-24T17:57:27.696Z,27.04
2022-08-24T17:59:54.638Z,26.72
2022-08-24T18:02:22.833Z,26.55
2022-08-24T18:04:50.409Z,26.66
2022-08-24T18:07:36.173Z,26.60
2022-08-24T18:10:11.004Z,27.43
2022-08-24T18:12:38.852Z,27.47
2022-08-24T18:15:06.780Z,27.71
2022-08-24T18:17:39.955Z,27.24
2022-08-24T18:20:11.620Z,27.44
2022-08-24T18:22:44.897Z,27.67
2022-08-24T18:25:14.433Z,27.80
2022-08-24T18:27:46.481Z,27.76
2022-08-24T18:30:30.498Z,27.83
2022-08-24T18:32:59.508Z,28.41
2022-08-24T18:35:26.528Z,28.74
2022-08-24T18:37:53.363Z,28.68
2022-08-24T18:40:21.647Z,28.54
2022-08-24T18:42:50.755Z,28.14
2022-08-24T18:45:18.034Z,28.47
2022-08-24T18:47:45.103Z,28.82
2022-08-24T18:50:21.147Z,28.51
2022-08-24T18:52:48.189Z,28.81
2022-08-24T18:55:16.755Z,28.72
2022-08-24T18:57:43.605Z,28.53
2022-08-24T19:00:11.584Z,29.10
2022-08-24T19:02:40.529Z,28.64
2022-08-24T19:05:12.917Z,28.54
2022-08-24T19:07:45.930Z,28.86
2022-08-24T19:10:21.449Z,29.78
2022-08-24T19:12:55.878Z,29.23
2022-08-24T19:15:32.190Z,32.21
2022-08-24T19:18:09.625Z,32.71
2022-08-24T19:20:42.339Z,31.92
2022-08-24T19:23:18.106Z,32.24
2022-08-24T19:25:46.019Z,32.75
2022-08-24T19:28:13.777Z,32.21
2022-08-24T19:30:42.308Z,32.86
2022-08-24T19:33:13.810Z,32.09
2022-08-24T19:35:41.547Z,32.48
2022-08-24T19:38:08.944Z,32.54
2022-08-24T19:40:35.887Z,32.28
2022-08-24T19:43:06.163Z,32.83
2022-08-24T19:45:54.419Z,32.45
2022-08-24T19:48:23.247Z,32.47
2022-08-24T19:50:52.011Z,32.89
2022-08-24T19:53:19.438Z,32.60
2022-08-24T19:55:50.110Z,32.20
2022-08-24T19:58:31.832Z,32.93
2022-08-24T20:01:11.966Z,32.79
2022-08-24T20:03:39.035Z,32.37
2022-08-24T20:06:06.229Z,32.55
2022-08-24T20:08:33.094Z,32.55
2022-08-24T20:11:00.524Z,32.30
2022-08-24T20:13:28.167Z,32.13
2022-08-24T20:15:56.384Z,32.26
2022-08-24T20:18:32.604Z,33.20
2022-08-24T20:21:00.135Z,32.59
2022-08-24T20:23:29.385Z,32.24
2022-08-24T20:25:58.754Z,33.09
2022-08-24T20:28:46.208Z,32.64
2022-08-24T20:31:18.694Z,32.36
2022-08-24T20:33:46.073Z,33.49
2022-08-24T20:36:44.994Z,33.01
2022-08-24T20:39:14.438Z,33.23
2022-08-24T20:41:41.382Z,33.30
2022-08-24T20:44:09.177Z,33.20
2022-08-24T20:46:37.541Z,33.49
2022-08-24T20:49:07.239Z,33.69
2022-08-24T20:51:34.291Z,33.92
2022-08-24T20:54:06.119Z,34.01
2022-08-24T20:56:37.688Z,33.92
2022-08-24T20:59:11.105Z,33.86
2022-08-24T21:01:41.433Z,34.02
2022-08-24T21:04:09.370Z,33.93
2022-08-24T21:06:37.173Z,34.34
2022-08-24T21:09:05.858Z,34.55
2022-08-24T21:11:33.826Z,34.23
2022-08-24T21:14:05.491Z,34.32
2022-08-24T21:16:41.624Z,34.80
2022-08-24T21:19:11.319Z,34.79
2022-08-24T21:21:42.104Z,34.85
2022-08-24T21:24:09.748Z,34.69
2022-08-24T21:26:37.271Z,35.08
2022-08-24T21:29:06.839Z,34.91
2022-08-24T21:31:34.235Z,35.04
2022-08-24T21:34:19.581Z,35.22
2022-08-24T21:36:47.920Z,35.11
2022-08-24T21:39:15.061Z,35.16
2022-08-24T21:41:41.985Z,35.40
2022-08-24T21:44:09.035Z,35.34
2022-08-24T21:46:38.425Z,35.47
2022-08-24T21:49:06.682Z,35.66
2022-08-24T21:51:34.308Z,35.65
2022-08-24T21:54:01.440Z,35.84
2022-08-24T21:56:31.504Z,35.95
2022-08-24T21:58:58.709Z,36.09
2022-08-24T22:01:25.775Z,36.14
2022-08-24T22:03:56.263Z,36.13
2022-08-24T22:06:24.435Z,36.27
2022-08-24T22:08:53.737Z,36.40
2022-08-24T22:11:25.456Z,36.40
2022-08-24T22:13:53.779Z,36.47
2022-08-24T22:16:21.827Z,36.58
2022-08-24T22:18:49.407Z,36.98
2022-08-24T22:21:21.459Z,37.16
2022-08-24T22:23:48.305Z,37.29
2022-08-24T22:26:15.634Z,38.24
2022-08-24T22:28:42.859Z,37.96
2022-08-24T22:31:31.141Z,38.09
2022-08-24T22:34:00.681Z,38.12
2022-08-24T22:36:29.102Z,38.41
2022-08-24T22:38:58.182Z,38.86
2022-08-24T22:41:29.345Z,38.88
2022-08-24T22:44:16.018Z,38.94
2022-08-24T22:46:43.314Z,39.68
2022-08-24T22:49:11.590Z,39.47
2022-08-24T22:51:39.311Z,39.90
2022-08-24T22:54:07.374Z,40.36
2022-08-24T22:56:39.475Z,40.39
2022-08-24T22:59:08.603Z,40.25
2022-08-24T23:01:41.815Z,40.39
2022-08-24T23:04:14.594Z,40.75
2022-08-24T23:06:42.050Z,40.59
2022-08-24T23:09:09.938Z,41.10
2022-08-24T23:11:37.594Z,41.06
2022-08-24T23:14:06.867Z,41.06
2022-08-24T23:16:37.362Z,41.65
2022-08-24T23:19:23.790Z,41.22
2022-08-24T23:21:50.836Z,41.35
2022-08-24T23:24:18.294Z,41.21
2022-08-24T23:26:45.346Z,41.67
2022-08-24T23:29:16.976Z,41.71
2022-08-24T23:31:46.114Z,42.05
2022-08-24T23:34:14.312Z,42.25
2022-08-24T23:36:41.754Z,41.88
2022-08-24T23:39:10.687Z,42.47
2022-08-24T23:41:44.216Z,42.30
2022-08-24T23:44:20.828Z,42.45
2022-08-24T23:46:48.922Z,41.87
2022-08-24T23:49:19.743Z,42.09
2022-08-24T23:51:47.720Z,42.05
2022-08-24T23:54:15.870Z,42.32
2022-08-24T23:56:46.014Z,42.38
2022-08-24T23:59:33.561Z,42.08
